createdAt,value
2022-12-14T00:02:33.005Z,10.07
2022-12-14T00:05:08.349Z,11.50
2022-12-14T00:07:42.704Z,11.90
2022-12-14T00:10:18.379Z,10.80
2022-12-14T00:12:52.377Z,10.10
2022-12-14T00:15:31.272Z,12.97
2022-12-14T00:18:06.458Z,12.17
2022-12-14T00:20:43.317Z,10.33
2022-12-14T00:23:17.204Z,11.43
2022-12-14T00:25:52.209Z,12.60
2022-12-14T00:28:26.003Z,11.20
2022-12-14T00:31:00.379Z,12.83
2022-12-14T00:33:34.677Z,10.77
2022-12-14T00:36:11.903Z,11.30
2022-12-14T00:38:45.970Z,10.10
2022-12-14T00:41:21.167Z,11.77
2022-12-14T00:43:54.753Z,11.03
2022-12-14T00:46:29.218Z,11.53
2022-12-14T00:49:03.107Z,13.07
2022-12-14T00:51:37.062Z,10.50
2022-12-14T00:54:11.012Z,12.43
2022-12-14T00:56:46.434Z,10.67
2022-12-14T00:59:25.682Z,14.80
2022-12-14T01:02:01.097Z,12.03
2022-12-14T01:04:34.913Z,11.23
2022-12-14T01:07:08.821Z,12.00
2022-12-14T01:09:48.059Z,10.43
2022-12-14T01:12:23.731Z,11.87
2022-12-14T01:14:58.870Z,10.50
2022-12-14T01:20:35.794Z,11.63
2022-12-14T01:23:09.683Z,11.27
2022-12-14T01:25:48.893Z,10.80
2022-12-14T01:28:24.128Z,10.17
2022-12-14T01:30:57.994Z,9.90
2022-12-14T01:33:31.811Z,9.80
2022-12-14T01:36:10.256Z,12.00
2022-12-14T01:38:48.138Z,9.13
2022-12-14T01:41:27.890Z,9.67
2022-12-14T01:45:07.990Z,10.70
2022-12-14T01:47:48.842Z,11.57
2022-12-14T01:50:31.486Z,10.27
2022-12-14T01:53:10.871Z,9.73
2022-12-14T01:55:51.363Z,10.10
2022-12-14T01:58:28.953Z,9.60
2022-12-14T02:01:04.687Z,9.17
2022-12-14T02:03:46.608Z,9.50
2022-12-14T02:06:27.070Z,9.53
2022-12-14T02:09:01.157Z,9.10
2022-12-14T02:11:45.910Z,9.30
2022-12-14T02:14:19.508Z,9.67
2022-12-14T02:16:58.519Z,9.77
2022-12-14T02:19:33.546Z,8.53
2022-12-14T02:23:11.389Z,9.33
2022-12-14T02:26:33.453Z,7.50
2022-12-14T02:29:52.840Z,7.70
2022-12-14T02:33:04.922Z,7.80
2022-12-14T02:35:50.234Z,7.50
2022-12-14T02:38:46.774Z,7.73
2022-12-14T02:41:38.451Z,7.20
2022-12-14T02:44:27.462Z,8.97
2022-12-14T02:47:14.504Z,8.50
2022-12-14T02:50:05.099Z,7.20
2022-12-14T02:52:48.473Z,7.80
2022-12-14T02:55:30.857Z,6.30
2022-12-14T02:58:13.717Z,6.83
2022-12-14T03:00:54.230Z,6.80
2022-12-14T03:03:28.723Z,8.10
2022-12-14T03:06:05.187Z,9.23
2022-12-14T03:08:39.206Z,7.20
2022-12-14T03:11:20.984Z,7.80
2022-12-14T03:14:02.535Z,6.47
2022-12-14T03:16:43.046Z,7.07
2022-12-14T03:19:24.991Z,6.60
2022-12-14T03:22:08.863Z,7.10
2022-12-14T03:24:47.912Z,6.73
2022-12-14T03:27:28.642Z,8.10
2022-12-14T03:30:09.835Z,6.43
2022-12-14T03:32:53.620Z,7.17
2022-12-14T03:35:34.138Z,6.43
2022-12-14T03:38:17.830Z,7.80
2022-12-14T03:41:06.514Z,6.67
2022-12-14T03:43:53.819Z,5.97
2022-12-14T03:46:42.082Z,6.73
2022-12-14T03:49:22.945Z,5.83
2022-12-14T03:52:09.005Z,6.17
2022-12-14T03:54:54.756Z,6.50
2022-12-14T03:57:49.295Z,6.57
2022-12-14T04:00:26.522Z,6.63
2022-12-14T04:03:12.009Z,6.40
2022-12-14T04:05:59.442Z,6.53
2022-12-14T04:08:43.556Z,7.73
2022-12-14T04:11:38.042Z,6.90
2022-12-14T04:14:40.945Z,6.13
2022-12-14T04:17:39.116Z,6.17
2022-12-14T04:20:25.031Z,6.30
2022-12-14T04:23:08.939Z,5.83
2022-12-14T04:26:05.493Z,6.27
2022-12-14T04:29:04.996Z,6.20
2022-12-14T04:31:44.392Z,6.70
2022-12-14T04:34:27.468Z,4.80
2022-12-14T04:37:08.839Z,7.23
2022-12-14T04:39:53.905Z,10.40
2022-12-14T04:42:36.212Z,12.40
2022-12-14T04:45:18.820Z,11.43
2022-12-14T04:48:02.999Z,10.40
2022-12-14T04:50:46.792Z,8.60
2022-12-14T04:53:28.152Z,10.83
2022-12-14T04:56:16.069Z,9.63
2022-12-14T04:58:50.479Z,9.63
2022-12-14T05:01:40.751Z,10.30
2022-12-14T05:04:26.978Z,9.87
2022-12-14T05:07:16.745Z,8.00
2022-12-14T05:10:04.468Z,8.47
2022-12-14T05:12:46.451Z,8.53
2022-12-14T05:15:28.468Z,9.47
2022-12-14T05:18:05.733Z,7.57
2022-12-14T05:20:52.466Z,7.77
2022-12-14T05:23:27.065Z,8.20
2022-12-14T05:26:01.288Z,7.07
2022-12-14T05:28:36.561Z,6.40
2022-12-14T05:31:10.418Z,7.83
2022-12-14T05:33:47.038Z,6.17
2022-12-14T05:36:21.960Z,5.30
2022-12-14T05:38:56.195Z,6.43
2022-12-14T05:41:30.158Z,7.23
2022-12-14T05:44:08.174Z,6.17
2022-12-14T05:46:44.326Z,5.40
2022-12-14T05:49:20.789Z,6.63
2022-12-14T05:51:58.511Z,6.50
2022-12-14T05:54:36.536Z,5.60
2022-12-14T05:57:14.288Z,7.23
2022-12-14T05:59:53.209Z,6.73
2022-12-14T06:02:30.998Z,7.00
2022-12-14T06:05:04.923Z,6.60
2022-12-14T06:07:39.893Z,7.50
2022-12-14T06:10:22.146Z,7.73
2022-12-14T06:12:59.032Z,6.30
2022-12-14T06:15:34.354Z,6.90
2022-12-14T06:18:09.196Z,7.50
2022-12-14T06:20:43.616Z,5.83
2022-12-14T06:23:19.470Z,6.83
2022-12-14T06:25:55.768Z,6.80
2022-12-14T06:28:29.502Z,7.50
2022-12-14T06:31:17.090Z,6.57
2022-12-14T06:33:51.490Z,7.07
2022-12-14T06:36:28.900Z,6.37
2022-12-14T06:39:06.169Z,7.67
2022-12-14T06:41:41.222Z,5.13
2022-12-14T06:44:16.029Z,6.77
2022-12-14T06:46:51.693Z,7.27
2022-12-14T06:49:25.433Z,7.53
2022-12-14T06:51:58.976Z,8.07
2022-12-14T06:54:34.640Z,7.03
2022-12-14T06:57:08.641Z,6.37
2022-12-14T06:59:42.274Z,5.90
2022-12-14T07:02:17.597Z,5.97
2022-12-14T07:04:51.492Z,6.50
2022-12-14T07:07:27.451Z,6.03
2022-12-14T07:10:02.391Z,7.37
2022-12-14T07:12:36.596Z,7.83
2022-12-14T07:15:11.567Z,7.63
2022-12-14T07:17:52.031Z,6.90
2022-12-14T07:20:32.302Z,6.73
2022-12-14T07:23:08.957Z,7.07
2022-12-14T07:25:42.876Z,6.83
2022-12-14T07:28:16.730Z,8.20
2022-12-14T07:30:56.267Z,8.73
2022-12-14T07:33:33.902Z,8.40
2022-12-14T07:36:11.718Z,7.33
2022-12-14T07:38:49.312Z,8.33
2022-12-14T07:41:31.223Z,8.40
2022-12-14T07:44:05.546Z,8.70
2022-12-14T07:46:49.278Z,8.97
2022-12-14T07:49:24.677Z,9.60
2022-12-14T07:51:59.902Z,7.90
2022-12-14T07:54:33.881Z,8.60
2022-12-14T07:57:11.585Z,10.17
2022-12-14T07:59:55.702Z,7.90
2022-12-14T08:02:31.309Z,7.83
2022-12-14T08:05:14.799Z,9.77
2022-12-14T08:07:48.543Z,7.50
2022-12-14T08:10:22.143Z,8.70
2022-12-14T08:12:55.704Z,8.80
2022-12-14T08:15:30.384Z,10.67
2022-12-14T08:18:04.519Z,9.87
2022-12-14T08:20:43.100Z,9.83
2022-12-14T08:23:18.570Z,8.97
2022-12-14T08:25:55.712Z,9.67
2022-12-14T08:28:32.914Z,10.77
2022-12-14T08:31:09.153Z,12.67
2022-12-14T08:33:46.275Z,11.90
2022-12-14T08:36:25.625Z,9.43
2022-12-14T08:39:01.659Z,9.70
2022-12-14T08:41:37.417Z,9.07
2022-12-14T08:44:13.176Z,10.03
2022-12-14T08:46:48.122Z,9.60
2022-12-14T08:49:21.800Z,8.83
2022-12-14T08:51:59.183Z,10.23
2022-12-14T08:54:35.858Z,8.17
2022-12-14T08:57:09.617Z,9.70
2022-12-14T09:02:42.768Z,7.70
2022-12-14T09:05:17.182Z,8.83
2022-12-14T09:07:53.597Z,9.80
2022-12-14T09:10:27.980Z,10.33
2022-12-14T09:13:01.786Z,8.40
2022-12-14T09:15:42.674Z,12.70
2022-12-14T09:18:16.466Z,8.30
2022-12-14T09:20:51.625Z,10.03
2022-12-14T09:23:32.780Z,9.33
2022-12-14T09:26:13.557Z,9.70
2022-12-14T09:28:52.072Z,10.87
2022-12-14T09:31:30.261Z,8.73
2022-12-14T09:34:07.857Z,10.27
2022-12-14T09:36:42.226Z,8.87
2022-12-14T09:39:17.549Z,9.80
2022-12-14T09:42:05.368Z,9.10
2022-12-14T09:44:58.453Z,8.13
2022-12-14T09:47:47.075Z,10.37
2022-12-14T09:50:24.297Z,10.27
2022-12-14T09:53:07.303Z,12.23
2022-12-14T09:55:52.942Z,9.70
2022-12-14T09:58:33.989Z,10.07
2022-12-14T10:02:30.462Z,10.40
2022-12-14T10:05:11.994Z,10.17
2022-12-14T10:07:59.935Z,9.30
2022-12-14T10:10:48.201Z,10.03
2022-12-14T10:13:38.116Z,11.47
2022-12-14T10:16:34.924Z,12.90
2022-12-14T10:19:38.898Z,10.07
2022-12-14T10:22:21.013Z,10.60
2022-12-14T10:25:08.968Z,10.10
2022-12-14T10:28:10.811Z,10.97
2022-12-14T10:30:47.919Z,9.33
2022-12-14T10:33:28.908Z,9.83
2022-12-14T10:36:14.572Z,10.00
2022-12-14T10:38:59.612Z,11.57
2022-12-14T10:41:43.571Z,11.63
2022-12-14T10:44:35.488Z,11.70
2022-12-14T10:47:20.368Z,13.40
2022-12-14T10:50:04.613Z,11.87
2022-12-14T10:52:45.080Z,12.70
2022-12-14T10:55:25.013Z,13.03
2022-12-14T10:57:58.820Z,12.20
2022-12-14T11:00:33.965Z,15.03
2022-12-14T11:03:16.403Z,12.47
2022-12-14T11:06:00.424Z,11.47
2022-12-14T11:08:48.271Z,12.80
2022-12-14T11:11:25.885Z,12.07
2022-12-14T11:14:15.929Z,14.20
2022-12-14T11:16:51.209Z,14.13
2022-12-14T11:19:27.469Z,12.90
2022-12-14T11:22:22.164Z,13.53
2022-12-14T11:24:57.836Z,10.57
2022-12-14T11:27:32.822Z,11.37
2022-12-14T11:30:08.386Z,13.63
2022-12-14T11:32:48.223Z,14.13
2022-12-14T11:35:22.835Z,11.93
2022-12-14T11:38:02.242Z,9.63
2022-12-14T11:40:39.052Z,11.50
2022-12-14T11:43:27.493Z,9.87
2022-12-14T11:46:01.775Z,11.23
2022-12-14T11:48:50.263Z,12.93
2022-12-14T11:51:24.290Z,10.30
2022-12-14T11:54:04.747Z,11.37
2022-12-14T11:56:38.644Z,9.53
2022-12-14T11:59:18.516Z,10.33
2022-12-14T12:01:53.445Z,11.63
2022-12-14T12:04:28.643Z,11.63
2022-12-14T12:07:15.667Z,12.80
2022-12-14T12:09:49.377Z,9.50
2022-12-14T12:12:25.124Z,8.93
2022-12-14T12:15:00.283Z,13.77
2022-12-14T12:17:44.745Z,10.10
2022-12-14T12:20:33.680Z,9.87
2022-12-14T12:23:16.819Z,10.40
2022-12-14T12:25:55.590Z,9.37
2022-12-14T12:28:36.295Z,9.00
2022-12-14T12:31:25.104Z,8.80
2022-12-14T12:34:03.938Z,9.97
2022-12-14T12:37:02.750Z,10.43
2022-12-14T12:39:42.211Z,8.80
2022-12-14T12:42:27.850Z,8.30
2022-12-14T12:45:10.184Z,10.10
2022-12-14T12:47:51.200Z,9.27
2022-12-14T12:50:32.939Z,7.23
2022-12-14T12:53:17.122Z,9.47
2022-12-14T12:55:57.688Z,9.10
2022-12-14T12:58:35.477Z,9.17
2022-12-14T13:01:25.449Z,8.73
2022-12-14T13:04:05.705Z,9.50
2022-12-14T13:06:50.049Z,8.13
2022-12-14T13:09:39.546Z,7.00
2022-12-14T13:12:25.445Z,10.37
2022-12-14T13:15:03.335Z,12.93
2022-12-14T13:17:46.866Z,11.37
2022-12-14T13:20:31.547Z,12.73
2022-12-14T13:23:36.388Z,10.90
2022-12-14T13:26:56.196Z,12.30
2022-12-14T13:29:44.536Z,9.70
2022-12-14T13:32:39.175Z,9.03
2022-12-14T13:35:37.877Z,10.90
2022-12-14T13:38:35.876Z,9.10
2022-12-14T13:41:28.630Z,10.00
2022-12-14T13:44:38.634Z,9.37
2022-12-14T13:47:27.042Z,8.10
2022-12-14T13:50:39.826Z,7.20
2022-12-14T13:53:04.116Z,8.83
2022-12-14T13:55:42.113Z,8.53
2022-12-14T13:58:24.216Z,7.97
2022-12-14T14:01:15.167Z,8.53
2022-12-14T14:03:57.951Z,8.33
2022-12-14T14:06:42.304Z,7.20
2022-12-14T14:10:00.146Z,9.00
2022-12-14T14:12:45.092Z,8.87
2022-12-14T14:16:26.450Z,9.63
2022-12-14T14:18:57.618Z,8.83
2022-12-14T14:22:14.204Z,9.23
2022-12-14T14:25:02.130Z,10.03
2022-12-14T14:27:39.888Z,9.93
2022-12-14T14:30:30.671Z,10.90
2022-12-14T14:33:44.961Z,10.57
2022-12-14T14:36:33.420Z,9.80
2022-12-14T14:39:54.874Z,8.83
2022-12-14T14:42:25.106Z,9.73
2022-12-14T14:45:03.351Z,9.40
2022-12-14T14:47:41.595Z,11.17
2022-12-14T14:50:28.499Z,9.23
2022-12-14T14:53:15.379Z,13.17
2022-12-14T14:56:27.175Z,10.03
2022-12-14T14:59:40.603Z,9.00
2022-12-14T15:02:33.862Z,8.77
2022-12-14T15:08:21.412Z,9.07
2022-12-14T15:10:56.242Z,9.73
2022-12-14T15:13:39.261Z,10.70
2022-12-14T15:16:34.394Z,11.13
2022-12-14T15:19:36.279Z,16.63
2022-12-14T15:22:18.641Z,13.87
2022-12-14T15:24:56.039Z,17.40
2022-12-14T15:27:35.625Z,15.30
2022-12-14T15:30:26.871Z,14.73
2022-12-14T15:33:05.295Z,14.43
2022-12-14T15:35:42.570Z,13.53
2022-12-14T15:38:25.827Z,10.53
2022-12-14T15:41:04.431Z,12.00
2022-12-14T15:43:45.104Z,11.10
2022-12-14T15:46:26.145Z,11.23
2022-12-14T15:49:01.974Z,11.33
2022-12-14T15:51:40.784Z,11.50
2022-12-14T15:54:22.036Z,11.13
2022-12-14T15:56:58.509Z,11.27
2022-12-14T15:59:38.147Z,13.33
2022-12-14T16:02:25.796Z,18.20
2022-12-14T16:05:05.820Z,13.80
2022-12-14T16:07:44.372Z,13.60
2022-12-14T16:10:26.681Z,10.50
2022-12-14T16:13:07.863Z,11.90
2022-12-14T16:15:46.377Z,12.37
2022-12-14T16:18:25.238Z,12.57
2022-12-14T16:21:03.688Z,12.43
2022-12-14T16:23:44.930Z,10.67
2022-12-14T16:26:27.283Z,13.63
2022-12-14T16:29:19.855Z,12.33
2022-12-14T16:32:02.802Z,10.73
2022-12-14T16:34:36.751Z,11.33
2022-12-14T16:37:34.881Z,13.67
2022-12-14T16:40:25.332Z,12.27
2022-12-14T16:43:01.284Z,10.57
2022-12-14T16:46:15.083Z,12.97
2022-12-14T16:49:21.720Z,11.53
2022-12-14T16:52:09.000Z,11.67
2022-12-14T16:54:43.342Z,12.47
2022-12-14T16:57:22.673Z,12.47
2022-12-14T17:00:02.194Z,12.73
2022-12-14T17:02:42.693Z,16.23
2022-12-14T17:05:22.627Z,13.30
2022-12-14T17:07:56.983Z,13.00
2022-12-14T17:10:34.000Z,13.50
2022-12-14T17:13:07.952Z,10.73
2022-12-14T17:15:59.776Z,12.50
2022-12-14T17:18:41.153Z,13.27
2022-12-14T17:21:23.802Z,12.23
2022-12-14T17:23:58.993Z,13.33
2022-12-14T17:26:33.746Z,14.13
2022-12-14T17:29:13.161Z,15.77
2022-12-14T17:31:50.183Z,17.57
2022-12-14T17:34:24.382Z,17.20
2022-12-14T17:36:58.286Z,16.27
2022-12-14T17:39:35.782Z,17.37
2022-12-14T17:42:15.861Z,16.73
2022-12-14T17:44:55.287Z,16.17
2022-12-14T17:47:30.380Z,14.43
2022-12-14T17:50:04.341Z,13.97
2022-12-14T17:52:38.591Z,14.90
2022-12-14T17:55:19.416Z,13.73
2022-12-14T17:57:54.227Z,13.37
2022-12-14T18:00:49.210Z,14.37
2022-12-14T18:03:25.075Z,13.73
2022-12-14T18:06:00.760Z,13.97
2022-12-14T18:08:34.443Z,13.57
2022-12-14T18:11:13.696Z,13.20
2022-12-14T18:13:48.822Z,11.87
2022-12-14T18:16:27.212Z,13.00
2022-12-14T18:19:04.194Z,13.17
2022-12-14T18:21:37.995Z,11.77
2022-12-14T18:24:15.569Z,12.80
2022-12-14T18:26:49.723Z,11.73
2022-12-14T18:29:23.455Z,12.17
2022-12-14T18:31:57.479Z,12.07
2022-12-14T18:34:32.862Z,12.57
2022-12-14T18:37:08.556Z,12.73
2022-12-14T18:39:42.543Z,10.93
2022-12-14T18:42:22.292Z,10.60
2022-12-14T18:44:59.145Z,11.97
2022-12-14T18:47:41.858Z,12.53
2022-12-14T18:50:19.350Z,13.10
2022-12-14T18:52:53.434Z,12.30
2022-12-14T18:55:30.991Z,12.70
2022-12-14T18:58:05.381Z,12.67
2022-12-14T19:00:43.185Z,14.83
2022-12-14T19:03:32.294Z,12.20
2022-12-14T19:06:42.814Z,11.77
2022-12-14T19:09:05.776Z,12.80
2022-12-14T19:11:43.281Z,12.20
2022-12-14T19:14:17.371Z,12.43
2022-12-14T19:16:51.278Z,12.73
2022-12-14T19:19:30.661Z,13.20
2022-12-14T19:22:10.633Z,15.70
2022-12-14T19:24:47.804Z,14.30
2022-12-14T19:28:00.911Z,13.37
2022-12-14T19:30:25.573Z,13.83
2022-12-14T19:33:00.201Z,12.77
2022-12-14T19:35:34.099Z,12.23
2022-12-14T19:38:14.800Z,14.03
2022-12-14T19:41:03.935Z,16.87
2022-12-14T19:43:41.255Z,15.90
2022-12-14T19:46:16.662Z,18.73
2022-12-14T19:48:52.672Z,14.93
2022-12-14T19:51:27.149Z,20.90
2022-12-14T19:54:03.178Z,20.90
2022-12-14T19:56:37.651Z,19.93
2022-12-14T19:59:11.680Z,19.47
2022-12-14T20:01:48.195Z,16.13
2022-12-14T20:04:23.103Z,18.77
2022-12-14T20:06:57.191Z,17.07
2022-12-14T20:09:33.434Z,17.50
2022-12-14T20:12:10.438Z,16.07
2022-12-14T20:14:44.261Z,14.93
2022-12-14T20:17:18.451Z,15.70
2022-12-14T20:19:53.799Z,16.40
2022-12-14T20:22:28.109Z,18.70
2022-12-14T20:25:03.316Z,18.47
2022-12-14T20:27:40.793Z,18.37
2022-12-14T20:30:15.826Z,17.40
2022-12-14T20:32:49.600Z,16.97
2022-12-14T20:35:26.430Z,16.67
2022-12-14T20:38:00.014Z,18.23
2022-12-14T20:40:38.997Z,16.47
2022-12-14T20:43:13.715Z,16.50
2022-12-14T20:45:48.845Z,17.23
2022-12-14T20:48:24.256Z,15.40
2022-12-14T20:51:02.166Z,15.63
2022-12-14T20:53:36.890Z,16.47
2022-12-14T20:56:12.463Z,17.23
2022-12-14T20:58:50.040Z,15.77
2022-12-14T21:01:25.189Z,14.87
2022-12-14T21:04:02.171Z,14.40
2022-12-14T21:06:39.784Z,19.17
2022-12-14T21:09:13.570Z,15.73
2022-12-14T21:12:09.597Z,16.13
2022-12-14T21:14:46.980Z,16.10
2022-12-14T21:17:28.144Z,16.77
2022-12-14T21:20:02.465Z,15.73
2022-12-14T21:22:36.600Z,14.20
2022-12-14T21:25:11.502Z,15.07
2022-12-14T21:27:46.432Z,15.63
2022-12-14T21:30:21.535Z,14.13
2022-12-14T21:32:55.792Z,14.27
2022-12-14T21:35:29.621Z,13.83
2022-12-14T21:38:04.010Z,13.23
2022-12-14T21:40:58.452Z,16.13
2022-12-14T21:43:34.292Z,14.33
2022-12-14T21:46:10.209Z,14.83
2022-12-14T21:48:45.277Z,15.23
2022-12-14T21:51:21.421Z,15.23
2022-12-14T21:54:00.665Z,14.00
2022-12-14T21:56:54.959Z,18.83
2022-12-14T21:59:34.074Z,30.83
2022-12-14T22:02:15.636Z,20.87
2022-12-14T22:04:57.891Z,19.17
2022-12-14T22:07:35.150Z,20.40
2022-12-14T22:10:09.575Z,19.33
2022-12-14T22:12:43.167Z,19.10
2022-12-14T22:15:19.132Z,15.23
2022-12-14T22:17:54.196Z,14.20
2022-12-14T22:20:27.856Z,15.43
2022-12-14T22:23:01.843Z,13.60
2022-12-14T22:25:35.381Z,15.63
2022-12-14T22:28:08.968Z,13.13
2022-12-14T22:30:44.858Z,12.67
2022-12-14T22:33:18.750Z,16.07
2022-12-14T22:35:53.048Z,13.63
2022-12-14T22:38:26.936Z,15.93
2022-12-14T22:41:03.671Z,14.47
2022-12-14T22:43:37.625Z,14.03
2022-12-14T22:46:14.694Z,16.77
2022-12-14T22:48:48.565Z,13.67
2022-12-14T22:51:23.393Z,13.60
2022-12-14T22:53:57.683Z,14.83
2022-12-14T22:56:40.129Z,13.40
2022-12-14T22:59:18.877Z,16.57
2022-12-14T23:01:55.109Z,13.83
2022-12-14T23:04:29.317Z,14.37
2022-12-14T23:07:02.943Z,11.60
2022-12-14T23:09:54.117Z,12.90
2022-12-14T23:12:45.576Z,13.40
2022-12-14T23:15:36.886Z,15.63
2022-12-14T23:18:29.597Z,15.60
2022-12-14T23:21:28.816Z,12.23
2022-12-14T23:24:20.424Z,15.63
2022-12-14T23:27:11.504Z,16.33
2022-12-14T23:30:02.834Z,14.90
2022-12-14T23:32:54.038Z,15.73
2022-12-14T23:35:46.495Z,13.73
2022-12-14T23:38:37.791Z,17.00
2022-12-14T23:41:28.514Z,14.07
2022-12-14T23:44:19.731Z,14.57
2022-12-14T23:47:11.266Z,15.20
2022-12-14T23:50:02.876Z,14.30
2022-12-14T23:52:55.656Z,14.87
2022-12-14T23:55:46.947Z,13.30
2022-12-14T23:58:38.754Z,14.37
